sensor_id;sensor_type;location;lat;lon;timestamp;pressure;altitude;pressure_sealevel;temperature;humidity
20394;BME280;10356;50.544;9.642;2023-02-18T00:02:11;98899.66;;;9.50;100.00
20394;BME280;10356;50.544;9.642;2023-02-18T00:04:40;98892.78;;;9.49;100.00
20394;BME280;10356;50.544;9.642;2023-02-18T00:07:08;98900.13;;;9.42;100.00
20394;BME280;10356;50.544;9.642;2023-02-18T00:09:36;98902.19;;;9.51;100.00
20394;BME280;10356;50.544;9.642;2023-02-18T00:12:03;98899.25;;;9.56;100.00
20394;BME280;10356;50.544;9.642;2023-02-18T00:14:30;98899.25;;;9.56;100.00
20394;BME280;10356;50.544;9.642;2023-02-18T00:16:56;98910.03;;;9.64;100.00
20394;BME280;10356;50.544;9.642;2023-02-18T00:19:23;98895.72;;;9.71;100.00
20394;BME280;10356;50.544;9.642;2023-02-18T00:21:49;98896.19;;;9.63;100.00
20394;BME280;10356;50.544;9.642;2023-02-18T00:24:17;98908.31;;;9.77;100.00
20394;BME280;10356;50.544;9.642;2023-02-18T00:26:44;98909.88;;;9.93;100.00
20394;BME280;10356;50.544;9.642;2023-02-18T00:29:10;98905.28;;;9.97;99.63
20394;BME280;10356;50.544;9.642;2023-02-18T00:31:38;98903.59;;;9.96;99.36
20394;BME280;10356;50.544;9.642;2023-02-18T00:34:05;98906.34;;;10.07;98.47
20394;BME280;10356;50.544;9.642;2023-02-18T00:36:32;98902.56;;;9.98;99.15
20394;BME280;10356;50.544;9.642;2023-02-18T00:39:00;98898.72;;;9.91;99.61
20394;BME280;10356;50.544;9.642;2023-02-18T00:41:29;98900.75;;;9.86;99.97
20394;BME280;10356;50.544;9.642;2023-02-18T00:43:56;98900.47;;;9.91;99.69
20394;BME280;10356;50.544;9.642;2023-02-18T00:46:23;98900.06;;;9.97;99.42
20394;BME280;10356;50.544;9.642;2023-02-18T00:48:50;98898.84;;;10.02;98.48
20394;BME280;10356;50.544;9.642;2023-02-18T00:51:17;98894.47;;;10.03;98.54
20394;BME280;10356;50.544;9.642;2023-02-18T00:53:43;98895.59;;;9.99;99.00
20394;BME280;10356;50.544;9.642;2023-02-18T00:56:10;98899.69;;;10.03;98.93
20394;BME280;10356;50.544;9.642;2023-02-18T00:58:38;98895.00;;;10.08;98.34
20394;BME280;10356;50.544;9.642;2023-02-18T01:01:06;98881.31;;;9.92;99.76
20394;BME280;10356;50.544;9.642;2023-02-18T01:03:33;98887.34;;;9.92;100.00
20394;BME280;10356;50.544;9.642;2023-02-18T01:06:00;98880.09;;;9.97;99.58
20394;BME280;10356;50.544;9.642;2023-02-18T01:08:26;98876.50;;;9.86;100.00
20394;BME280;10356;50.544;9.642;2023-02-18T01:10:55;98884.63;;;9.94;100.00
20394;BME280;10356;50.544;9.642;2023-02-18T01:13:23;98879.44;;;9.94;100.00
20394;BME280;10356;50.544;9.642;2023-02-18T01:15:51;98877.78;;;9.93;100.00
20394;BME280;10356;50.544;9.642;2023-02-18T01:18:18;98877.56;;;9.96;100.00
20394;BME280;10356;50.544;9.642;2023-02-18T01:20:45;98891.81;;;9.90;100.00
20394;BME280;10356;50.544;9.642;2023-02-18T01:23:12;98879.84;;;9.88;100.00
20394;BME280;10356;50.544;9.642;2023-02-18T01:25:39;98877.09;;;9.77;100.00
20394;BME280;10356;50.544;9.642;2023-02-18T01:28:07;98872.75;;;9.90;100.00
20394;BME280;10356;50.544;9.642;2023-02-18T01:30:34;98871.59;;;9.81;100.00
20394;BME280;10356;50.544;9.642;2023-02-18T01:33:01;98876.88;;;9.80;100.00
20394;BME280;10356;50.544;9.642;2023-02-18T01:35:28;98876.53;;;9.72;100.00
20394;BME280;10356;50.544;9.642;2023-02-18T01:37:55;98871.91;;;9.77;100.00
20394;BME280;10356;50.544;9.642;2023-02-18T01:40:24;98875.97;;;9.81;100.00
20394;BME280;10356;50.544;9.642;2023-02-18T01:42:51;98872.34;;;9.83;100.00
20394;BME280;10356;50.544;9.642;2023-02-18T01:45:42;98868.16;;;9.81;100.00
20394;BME280;10356;50.544;9.642;2023-02-18T01:48:16;98870.56;;;9.84;100.00
20394;BME280;10356;50.544;9.642;2023-02-18T01:50:46;98863.13;;;9.78;100.00
20394;BME280;10356;50.544;9.642;2023-02-18T01:53:17;98863.81;;;9.81;100.00
20394;BME280;10356;50.544;9.642;2023-02-18T01:55:45;98860.84;;;9.73;100.00
20394;BME280;10356;50.544;9.642;2023-02-18T01:58:13;98856.91;;;9.80;100.00
20394;BME280;10356;50.544;9.642;2023-02-18T02:00:40;98852.94;;;9.75;100.00
20394;BME280;10356;50.544;9.642;2023-02-18T02:03:06;98853.22;;;9.70;100.00
20394;BME280;10356;50.544;9.642;2023-02-18T02:05:34;98858.19;;;9.87;100.00
20394;BME280;10356;50.544;9.642;2023-02-18T02:08:02;98845.06;;;9.89;100.00
20394;BME280;10356;50.544;9.642;2023-02-18T02:10:37;98849.00;;;9.82;100.00
20394;BME280;10356;50.544;9.642;2023-02-18T02:13:13;98842.81;;;9.97;99.52
20394;BME280;10356;50.544;9.642;2023-02-18T02:15:44;98835.78;;;10.11;98.59
20394;BME280;10356;50.544;9.642;2023-02-18T02:18:28;98843.75;;;10.08;98.74
20394;BME280;10356;50.544;9.642;2023-02-18T02:24:28;98844.56;;;10.23;97.87
20394;BME280;10356;50.544;9.642;2023-02-18T02:27:11;98840.63;;;10.30;97.68
20394;BME280;10356;50.544;9.642;2023-02-18T02:32:57;98839.75;;;10.17;98.54
20394;BME280;10356;50.544;9.642;2023-02-18T02:35:34;98834.38;;;10.06;99.37
20394;BME280;10356;50.544;9.642;2023-02-18T02:38:05;98823.50;;;10.13;98.88
20394;BME280;10356;50.544;9.642;2023-02-18T02:40:36;98831.31;;;10.26;97.92
20394;BME280;10356;50.544;9.642;2023-02-18T02:43:10;98833.91;;;10.26;97.46
20394;BME280;10356;50.544;9.642;2023-02-18T02:45:47;98831.31;;;10.26;97.51
20394;BME280;10356;50.544;9.642;2023-02-18T02:48:30;98835.78;;;10.24;97.77
20394;BME280;10356;50.544;9.642;2023-02-18T02:51:04;98831.72;;;10.20;97.91
20394;BME280;10356;50.544;9.642;2023-02-18T02:53:35;98833.09;;;10.13;98.87
20394;BME280;10356;50.544;9.642;2023-02-18T02:56:02;98826.16;;;9.99;99.58
20394;BME280;10356;50.544;9.642;2023-02-18T02:58:29;98824.91;;;10.05;99.83
20394;BME280;10356;50.544;9.642;2023-02-18T03:01:11;98821.69;;;10.01;100.00
20394;BME280;10356;50.544;9.642;2023-02-18T03:04:20;98821.56;;;10.03;100.00
20394;BME280;10356;50.544;9.642;2023-02-18T03:07:08;98811.59;;;10.09;99.73
20394;BME280;10356;50.544;9.642;2023-02-18T03:09:46;98819.72;;;10.05;100.00
20394;BME280;10356;50.544;9.642;2023-02-18T03:12:24;98832.00;;;10.03;100.00
20394;BME280;10356;50.544;9.642;2023-02-18T03:14:55;98831.50;;;10.10;100.00
20394;BME280;10356;50.544;9.642;2023-02-18T03:17:27;98835.69;;;10.13;99.79
20394;BME280;10356;50.544;9.642;2023-02-18T03:20:02;98838.41;;;10.11;99.62
20394;BME280;10356;50.544;9.642;2023-02-18T03:22:36;98832.00;;;10.03;100.00
20394;BME280;10356;50.544;9.642;2023-02-18T03:25:04;98834.53;;;10.17;99.34
20394;BME280;10356;50.544;9.642;2023-02-18T03:27:33;98827.47;;;10.19;98.93
20394;BME280;10356;50.544;9.642;2023-02-18T03:30:06;98831.53;;;10.23;98.25
20394;BME280;10356;50.544;9.642;2023-02-18T03:32:35;98828.06;;;10.10;99.07
20394;BME280;10356;50.544;9.642;2023-02-18T03:35:05;98826.56;;;10.06;99.70
20394;BME280;10356;50.544;9.642;2023-02-18T03:37:37;98830.13;;;10.05;99.69
20394;BME280;10356;50.544;9.642;2023-02-18T03:40:05;98822.59;;;10.00;100.00
20394;BME280;10356;50.544;9.642;2023-02-18T03:42:32;98826.19;;;10.12;99.40
20394;BME280;10356;50.544;9.642;2023-02-18T03:44:59;98822.41;;;10.03;99.48
20394;BME280;10356;50.544;9.642;2023-02-18T03:47:26;98825.94;;;10.02;99.93
20394;BME280;10356;50.544;9.642;2023-02-18T03:49:52;98823.63;;;9.98;100.00
20394;BME280;10356;50.544;9.642;2023-02-18T03:52:19;98830.53;;;9.99;100.00
20394;BME280;10356;50.544;9.642;2023-02-18T03:54:47;98822.38;;;9.91;100.00
20394;BME280;10356;50.544;9.642;2023-02-18T03:57:16;98833.31;;;9.96;100.00
20394;BME280;10356;50.544;9.642;2023-02-18T04:00:16;98832.56;;;9.94;100.00
20394;BME280;10356;50.544;9.642;2023-02-18T04:07:05;98819.75;;;9.78;100.00
20394;BME280;10356;50.544;9.642;2023-02-18T04:19:46;98808.97;;;9.97;100.00
20394;BME280;10356;50.544;9.642;2023-02-18T04:29:24;98796.69;;;9.99;99.64
20394;BME280;10356;50.544;9.642;2023-02-18T04:32:53;98793.03;;;10.01;99.42
20394;BME280;10356;50.544;9.642;2023-02-18T04:50:09;98794.44;;;9.80;100.00
20394;BME280;10356;50.544;9.642;2023-02-18T04:53:40;98785.72;;;9.81;100.00
20394;BME280;10356;50.544;9.642;2023-02-18T04:56:54;98786.41;;;9.71;100.00
20394;BME280;10356;50.544;9.642;2023-02-18T05:06:30;98773.41;;;9.71;100.00
20394;BME280;10356;50.544;9.642;2023-02-18T05:12:41;98772.56;;;9.70;100.00
20394;BME280;10356;50.544;9.642;2023-02-18T05:15:34;98760.72;;;9.79;100.00
20394;BME280;10356;50.544;9.642;2023-02-18T05:22:14;98755.09;;;9.72;100.00
20394;BME280;10356;50.544;9.642;2023-02-18T05:28:03;98736.44;;;9.66;100.00
20394;BME280;10356;50.544;9.642;2023-02-18T05:34:36;98733.44;;;9.59;100.00
20394;BME280;10356;50.544;9.642;2023-02-18T05:43:09;98727.16;;;9.62;100.00
20394;BME280;10356;50.544;9.642;2023-02-18T05:45:50;98722.69;;;9.64;100.00
20394;BME280;10356;50.544;9.642;2023-02-18T05:55:39;98719.16;;;9.65;100.00
20394;BME280;10356;50.544;9.642;2023-02-18T05:58:22;98712.00;;;9.68;100.00
20394;BME280;10356;50.544;9.642;2023-02-18T06:04:03;98713.84;;;9.66;100.00
20394;BME280;10356;50.544;9.642;2023-02-18T06:12:08;98711.97;;;9.56;100.00
20394;BME280;10356;50.544;9.642;2023-02-18T06:15:05;98711.34;;;9.52;100.00
20394;BME280;10356;50.544;9.642;2023-02-18T06:18:53;98706.75;;;9.56;100.00
20394;BME280;10356;50.544;9.642;2023-02-18T06:21:48;98699.16;;;9.53;100.00
20394;BME280;10356;50.544;9.642;2023-02-18T06:27:12;98689.91;;;9.49;100.00
20394;BME280;10356;50.544;9.642;2023-02-18T06:30:15;98682.09;;;9.49;100.00
20394;BME280;10356;50.544;9.642;2023-02-18T06:37:23;98679.69;;;9.46;100.00
20394;BME280;10356;50.544;9.642;2023-02-18T06:39:59;98674.28;;;9.49;100.00
20394;BME280;10356;50.544;9.642;2023-02-18T06:43:21;98665.94;;;9.44;100.00
20394;BME280;10356;50.544;9.642;2023-02-18T06:52:15;98649.00;;;9.51;100.00
20394;BME280;10356;50.544;9.642;2023-02-18T06:55:07;98656.41;;;9.57;100.00
20394;BME280;10356;50.544;9.642;2023-02-18T06:57:50;98642.66;;;9.55;100.00
20394;BME280;10356;50.544;9.642;2023-02-18T07:00:39;98637.47;;;9.55;100.00
20394;BME280;10356;50.544;9.642;2023-02-18T07:03:19;98640.38;;;9.63;100.00
20394;BME280;10356;50.544;9.642;2023-02-18T07:06:23;98626.25;;;9.67;100.00
20394;BME280;10356;50.544;9.642;2023-02-18T07:09:12;98638.53;;;9.65;100.00
20394;BME280;10356;50.544;9.642;2023-02-18T07:15:23;98629.34;;;9.72;100.00
20394;BME280;10356;50.544;9.642;2023-02-18T07:21:02;98625.81;;;9.85;100.00
20394;BME280;10356;50.544;9.642;2023-02-18T07:27:06;98620.09;;;9.93;100.00
20394;BME280;10356;50.544;9.642;2023-02-18T07:29:38;98621.34;;;9.87;100.00
20394;BME280;10356;50.544;9.642;2023-02-18T07:32:08;98627.78;;;9.94;100.00
20394;BME280;10356;50.544;9.642;2023-02-18T07:34:42;98619.84;;;9.96;100.00
20394;BME280;10356;50.544;9.642;2023-02-18T07:37:08;98618.09;;;9.96;100.00
20394;BME280;10356;50.544;9.642;2023-02-18T07:39:39;98616.22;;;9.98;100.00
20394;BME280;10356;50.544;9.642;2023-02-18T07:42:07;98616.81;;;10.02;100.00
20394;BME280;10356;50.544;9.642;2023-02-18T07:44:34;98616.25;;;10.11;100.00
20394;BME280;10356;50.544;9.642;2023-02-18T07:47:01;98609.16;;;10.13;100.00
20394;BME280;10356;50.544;9.642;2023-02-18T07:49:28;98618.84;;;10.11;100.00
20394;BME280;10356;50.544;9.642;2023-02-18T07:51:55;98611.44;;;10.05;100.00
20394;BME280;10356;50.544;9.642;2023-02-18T07:54:22;98616.22;;;9.98;100.00
20394;BME280;10356;50.544;9.642;2023-02-18T07:56:48;98621.22;;;10.01;100.00
20394;BME280;10356;50.544;9.642;2023-02-18T07:59:16;98616.81;;;10.02;100.00
20394;BME280;10356;50.544;9.642;2023-02-18T08:01:43;98611.84;;;9.99;100.00
20394;BME280;10356;50.544;9.642;2023-02-18T08:04:10;98612.16;;;9.94;100.00
20394;BME280;10356;50.544;9.642;2023-02-18T08:06:38;98625.41;;;9.91;100.00
20394;BME280;10356;50.544;9.642;2023-02-18T08:09:06;98618.94;;;9.84;100.00
20394;BME280;10356;50.544;9.642;2023-02-18T08:11:34;98624.88;;;9.86;100.00
20394;BME280;10356;50.544;9.642;2023-02-18T08:14:01;98628.63;;;9.82;100.00
20394;BME280;10356;50.544;9.642;2023-02-18T08:16:29;98635.59;;;9.82;100.00
20394;BME280;10356;50.544;9.642;2023-02-18T08:18:56;98625.28;;;9.80;100.00
20394;BME280;10356;50.544;9.642;2023-02-18T08:21:25;98635.81;;;9.79;100.00
20394;BME280;10356;50.544;9.642;2023-02-18T08:23:52;98632.47;;;9.77;100.00
20394;BME280;10356;50.544;9.642;2023-02-18T08:26:19;98630.59;;;9.79;100.00
20394;BME280;10356;50.544;9.642;2023-02-18T08:28:49;98639.34;;;9.78;100.00
20394;BME280;10356;50.544;9.642;2023-02-18T08:31:16;98651.53;;;9.77;100.00
20394;BME280;10356;50.544;9.642;2023-02-18T08:33:45;98646.22;;;9.79;100.00
20394;BME280;10356;50.544;9.642;2023-02-18T08:36:12;98642.56;;;9.69;100.00
20394;BME280;10356;50.544;9.642;2023-02-18T08:38:39;98642.34;;;9.72;100.00
20394;BME280;10356;50.544;9.642;2023-02-18T08:41:07;98642.47;;;9.70;100.00
20394;BME280;10356;50.544;9.642;2023-02-18T08:43:34;98642.47;;;9.70;100.00
20394;BME280;10356;50.544;9.642;2023-02-18T08:46:00;98643.94;;;9.74;100.00
20394;BME280;10356;50.544;9.642;2023-02-18T08:48:28;98638.84;;;9.73;100.00
20394;BME280;10356;50.544;9.642;2023-02-18T08:50:56;98648.09;;;9.77;100.00
20394;BME280;10356;50.544;9.642;2023-02-18T08:53:22;98635.09;;;9.77;100.00
20394;BME280;10356;50.544;9.642;2023-02-18T08:55:49;98643.09;;;9.74;100.00
20394;BME280;10356;50.544;9.642;2023-02-18T08:58:16;98651.31;;;9.68;100.00
20394;BME280;10356;50.544;9.642;2023-02-18T09:00:43;98650.69;;;9.64;100.00
20394;BME280;10356;50.544;9.642;2023-02-18T09:03:11;98644.13;;;9.59;100.00
20394;BME280;10356;50.544;9.642;2023-02-18T09:05:38;98640.38;;;9.63;100.00
20394;BME280;10356;50.544;9.642;2023-02-18T09:08:06;98627.28;;;9.64;100.00
20394;BME280;10356;50.544;9.642;2023-02-18T09:10:33;98626.00;;;9.70;100.00
20394;BME280;10356;50.544;9.642;2023-02-18T09:12:59;98623.22;;;9.73;100.00
20394;BME280;10356;50.544;9.642;2023-02-18T09:15:26;98613.97;;;9.69;100.00
20394;BME280;10356;50.544;9.642;2023-02-18T09:17:52;98612.28;;;9.68;100.00
20394;BME280;10356;50.544;9.642;2023-02-18T09:20:19;98604.28;;;9.71;100.00
20394;BME280;10356;50.544;9.642;2023-02-18T09:22:46;98621.03;;;9.79;100.00
20394;BME280;10356;50.544;9.642;2023-02-18T09:25:14;98630.31;;;9.83;100.00
20394;BME280;10356;50.544;9.642;2023-02-18T09:27:40;98633.53;;;9.87;100.00
20394;BME280;10356;50.544;9.642;2023-02-18T09:30:07;98641.53;;;9.84;100.00
20394;BME280;10356;50.544;9.642;2023-02-18T09:32:34;98637.47;;;9.92;100.00
20394;BME280;10356;50.544;9.642;2023-02-18T09:35:00;98653.91;;;9.93;100.00
20394;BME280;10356;50.544;9.642;2023-02-18T09:37:27;98643.81;;;9.88;100.00
20394;BME280;10356;50.544;9.642;2023-02-18T09:39:54;98654.97;;;9.90;99.79
20394;BME280;10356;50.544;9.642;2023-02-18T09:42:27;98667.97;;;9.90;98.45
20394;BME280;10356;50.544;9.642;2023-02-18T09:44:58;98663.19;;;9.84;98.82
20394;BME280;10356;50.544;9.642;2023-02-18T09:47:30;98667.66;;;9.82;98.87
20394;BME280;10356;50.544;9.642;2023-02-18T09:50:03;98663.72;;;9.77;97.83
20394;BME280;10356;50.544;9.642;2023-02-18T09:52:33;98650.47;;;9.80;98.82
20394;BME280;10356;50.544;9.642;2023-02-18T09:55:14;98646.41;;;9.88;97.04
20394;BME280;10356;50.544;9.642;2023-02-18T09:57:45;98638.31;;;9.93;96.16
20394;BME280;10356;50.544;9.642;2023-02-18T10:00:14;98639.16;;;9.93;96.97
20394;BME280;10356;50.544;9.642;2023-02-18T10:02:52;98634.31;;;10.00;96.38
20394;BME280;10356;50.544;9.642;2023-02-18T10:05:20;98629.75;;;10.03;95.99
20394;BME280;10356;50.544;9.642;2023-02-18T10:07:50;98631.00;;;9.98;95.11
20394;BME280;10356;50.544;9.642;2023-02-18T10:10:24;98644.97;;;9.97;94.94
20394;BME280;10356;50.544;9.642;2023-02-18T10:12:54;98639.03;;;9.95;94.65
20394;BME280;10356;50.544;9.642;2023-02-18T10:15:24;98634.56;;;9.97;96.04
20394;BME280;10356;50.544;9.642;2023-02-18T10:17:53;98638.72;;;9.99;94.47
20394;BME280;10356;50.544;9.642;2023-02-18T10:20:23;98622.69;;;9.93;93.46
20394;BME280;10356;50.544;9.642;2023-02-18T10:22:51;98620.81;;;9.95;93.45
20394;BME280;10356;50.544;9.642;2023-02-18T10:25:22;98619.34;;;9.91;93.27
20394;BME280;10356;50.544;9.642;2023-02-18T10:27:51;98615.38;;;9.98;92.80
20394;BME280;10356;50.544;9.642;2023-02-18T10:30:23;98611.31;;;9.94;93.15
20394;BME280;10356;50.544;9.642;2023-02-18T10:32:55;98620.19;;;9.91;93.34
20394;BME280;10356;50.544;9.642;2023-02-18T10:35:25;98626.03;;;9.95;92.61
20394;BME280;10356;50.544;9.642;2023-02-18T10:38:01;98628.81;;;9.92;93.53
20394;BME280;10356;50.544;9.642;2023-02-18T10:40:50;98627.66;;;9.96;92.65
20394;BME280;10356;50.544;9.642;2023-02-18T10:43:25;98637.28;;;9.95;93.16
20394;BME280;10356;50.544;9.642;2023-02-18T10:46:20;98628.63;;;9.95;92.94
20394;BME280;10356;50.544;9.642;2023-02-18T10:49:08;98625.06;;;9.96;91.94
20394;BME280;10356;50.544;9.642;2023-02-18T10:51:44;98621.00;;;9.92;93.02
20394;BME280;10356;50.544;9.642;2023-02-18T10:54:13;98625.59;;;10.01;91.92
20394;BME280;10356;50.544;9.642;2023-02-18T10:56:41;98614.03;;;10.05;92.13
20394;BME280;10356;50.544;9.642;2023-02-18T10:59:17;98599.66;;;10.12;91.16
20394;BME280;10356;50.544;9.642;2023-02-18T11:01:53;98592.06;;;10.22;91.26
20394;BME280;10356;50.544;9.642;2023-02-18T11:04:24;98594.63;;;10.34;89.75
20394;BME280;10356;50.544;9.642;2023-02-18T11:06:51;98586.16;;;10.43;89.96
20394;BME280;10356;50.544;9.642;2023-02-18T11:09:27;98584.88;;;10.49;87.32
20394;BME280;10356;50.544;9.642;2023-02-18T11:12:05;98581.50;;;10.59;87.96
20394;BME280;10356;50.544;9.642;2023-02-18T11:14:36;98572.53;;;10.63;87.19
20394;BME280;10356;50.544;9.642;2023-02-18T11:17:14;98570.69;;;10.53;86.65
20394;BME280;10356;50.544;9.642;2023-02-18T11:19:41;98559.09;;;10.57;86.19
20394;BME280;10356;50.544;9.642;2023-02-18T11:22:14;98569.00;;;10.64;85.38
20394;BME280;10356;50.544;9.642;2023-02-18T11:24:43;98563.34;;;10.70;85.46
20394;BME280;10356;50.544;9.642;2023-02-18T11:27:20;98559.31;;;10.77;85.28
20394;BME280;10356;50.544;9.642;2023-02-18T11:29:49;98569.03;;;10.75;83.76
20394;BME280;10356;50.544;9.642;2023-02-18T11:32:19;98544.38;;;10.68;84.36
20394;BME280;10356;50.544;9.642;2023-02-18T11:34:48;98533.94;;;10.68;85.02
20394;BME280;10356;50.544;9.642;2023-02-18T11:37:22;98537.47;;;10.67;85.17
20394;BME280;10356;50.544;9.642;2023-02-18T11:39:51;98539.59;;;10.62;84.11
20394;BME280;10356;50.544;9.642;2023-02-18T11:42:20;98533.41;;;10.52;85.09
20394;BME280;10356;50.544;9.642;2023-02-18T11:44:50;98548.31;;;10.50;84.19
20394;BME280;10356;50.544;9.642;2023-02-18T11:47:25;98555.28;;;10.50;84.25
20394;BME280;10356;50.544;9.642;2023-02-18T11:50:16;98566.91;;;10.57;83.68
20394;BME280;10356;50.544;9.642;2023-02-18T11:52:44;98573.41;;;10.51;82.86
20394;BME280;10356;50.544;9.642;2023-02-18T11:55:16;98559.00;;;10.58;82.38
20394;BME280;10356;50.544;9.642;2023-02-18T11:57:47;98555.44;;;10.59;82.88
20394;BME280;10356;50.544;9.642;2023-02-18T12:00:20;98557.59;;;10.65;82.40
20394;BME280;10356;50.544;9.642;2023-02-18T12:02:50;98552.00;;;10.82;82.05
20394;BME280;10356;50.544;9.642;2023-02-18T12:05:21;98554.22;;;11.11;81.36
20394;BME280;10356;50.544;9.642;2023-02-18T12:07:50;98534.34;;;11.21;79.17
20394;BME280;10356;50.544;9.642;2023-02-18T12:10:21;98546.78;;;11.28;79.08
20394;BME280;10356;50.544;9.642;2023-02-18T12:12:52;98529.84;;;11.23;79.72
20394;BME280;10356;50.544;9.642;2023-02-18T12:15:48;98525.09;;;11.17;78.35
20394;BME280;10356;50.544;9.642;2023-02-18T12:18:30;98537.50;;;11.02;80.43
20394;BME280;10356;50.544;9.642;2023-02-18T12:21:10;98545.13;;;10.81;82.70
20394;BME280;10356;50.544;9.642;2023-02-18T12:23:50;98536.09;;;10.74;84.30
20394;BME280;10356;50.544;9.642;2023-02-18T12:26:24;98534.00;;;10.56;84.43
20394;BME280;10356;50.544;9.642;2023-02-18T12:29:14;98553.00;;;10.45;85.33
20394;BME280;10356;50.544;9.642;2023-02-18T12:31:59;98561.16;;;10.41;86.44
20394;BME280;10356;50.544;9.642;2023-02-18T12:34:42;98565.03;;;10.35;87.80
20394;BME280;10356;50.544;9.642;2023-02-18T12:37:40;98557.13;;;10.24;88.45
20394;BME280;10356;50.544;9.642;2023-02-18T12:40:26;98563.59;;;10.06;91.69
20394;BME280;10356;50.544;9.642;2023-02-18T12:43:03;98563.75;;;9.92;93.88
20394;BME280;10356;50.544;9.642;2023-02-18T12:45:47;98551.88;;;9.88;93.91
20394;BME280;10356;50.544;9.642;2023-02-18T12:48:28;98557.31;;;9.85;95.30
20394;BME280;10356;50.544;9.642;2023-02-18T12:51:10;98551.69;;;9.91;96.90
20394;BME280;10356;50.544;9.642;2023-02-18T12:54:03;98547.69;;;9.98;96.68
20394;BME280;10356;50.544;9.642;2023-02-18T12:59:51;98572.25;;;10.06;96.99
20394;BME280;10356;50.544;9.642;2023-02-18T13:02:34;98562.56;;;10.08;97.43
20394;BME280;10356;50.544;9.642;2023-02-18T13:05:11;98555.97;;;10.28;96.40
20394;BME280;10356;50.544;9.642;2023-02-18T13:07:58;98544.47;;;10.43;96.07
20394;BME280;10356;50.544;9.642;2023-02-18T13:10:43;98558.72;;;10.50;94.30
20394;BME280;10356;50.544;9.642;2023-02-18T13:13:18;98553.84;;;10.46;94.29
20394;BME280;10356;50.544;9.642;2023-02-18T13:15:49;98556.66;;;10.43;93.59
20394;BME280;10356;50.544;9.642;2023-02-18T13:18:22;98558.56;;;10.28;94.44
20394;BME280;10356;50.544;9.642;2023-02-18T13:20:51;98539.75;;;10.25;94.24
20394;BME280;10356;50.544;9.642;2023-02-18T13:23:22;98548.47;;;10.36;94.53
20394;BME280;10356;50.544;9.642;2023-02-18T13:25:53;98534.50;;;10.37;93.83
20394;BME280;10356;50.544;9.642;2023-02-18T13:28:27;98534.50;;;10.37;94.53
20394;BME280;10356;50.544;9.642;2023-02-18T13:31:02;98535.78;;;10.32;94.02
20394;BME280;10356;50.544;9.642;2023-02-18T13:33:37;98521.00;;;10.32;94.64
20394;BME280;10356;50.544;9.642;2023-02-18T13:36:12;98532.66;;;10.27;94.16
20394;BME280;10356;50.544;9.642;2023-02-18T13:38:55;98542.03;;;10.29;94.31
20394;BME280;10356;50.544;9.642;2023-02-18T13:41:25;98546.63;;;10.26;93.89
20394;BME280;10356;50.544;9.642;2023-02-18T13:43:52;98553.50;;;10.27;94.27
20394;BME280;10356;50.544;9.642;2023-02-18T13:46:20;98564.13;;;10.24;95.33
20394;BME280;10356;50.544;9.642;2023-02-18T13:48:48;98551.56;;;10.18;94.29
20394;BME280;10356;50.544;9.642;2023-02-18T13:51:17;98565.72;;;10.13;94.25
20394;BME280;10356;50.544;9.642;2023-02-18T13:53:59;98547.16;;;10.18;94.79
20394;BME280;10356;50.544;9.642;2023-02-18T13:56:29;98541.66;;;10.10;94.81
20394;BME280;10356;50.544;9.642;2023-02-18T13:58:59;98546.03;;;10.09;94.70
20394;BME280;10356;50.544;9.642;2023-02-18T14:01:38;98549.88;;;10.04;96.10
20394;BME280;10356;50.544;9.642;2023-02-18T14:04:33;98547.63;;;9.99;97.25
20394;BME280;10356;50.544;9.642;2023-02-18T14:07:23;98551.44;;;9.94;98.20
20394;BME280;10356;50.544;9.642;2023-02-18T14:09:53;98544.72;;;9.79;98.99
20394;BME280;10356;50.544;9.642;2023-02-18T14:12:36;98539.09;;;9.85;100.00
20394;BME280;10356;50.544;9.642;2023-02-18T14:18:23;98548.97;;;9.80;100.00
20394;BME280;10356;50.544;9.642;2023-02-18T14:20:50;98540.25;;;9.81;100.00
20394;BME280;10356;50.544;9.642;2023-02-18T14:23:41;98539.09;;;9.85;100.00
20394;BME280;10356;50.544;9.642;2023-02-18T14:26:17;98539.59;;;9.90;100.00
20394;BME280;10356;50.544;9.642;2023-02-18T14:28:51;98545.75;;;9.89;100.00
20394;BME280;10356;50.544;9.642;2023-02-18T14:31:27;98539.16;;;9.96;100.00
20394;BME280;10356;50.544;9.642;2023-02-18T14:34:17;98540.00;;;9.96;100.00
20394;BME280;10356;50.544;9.642;2023-02-18T14:36:51;98550.84;;;9.90;100.00
20394;BME280;10356;50.544;9.642;2023-02-18T14:39:36;98543.34;;;9.86;100.00
20394;BME280;10356;50.544;9.642;2023-02-18T14:42:19;98544.50;;;9.82;100.00
20394;BME280;10356;50.544;9.642;2023-02-18T14:45:03;98553.16;;;9.82;100.00
20394;BME280;10356;50.544;9.642;2023-02-18T14:47:41;98547.22;;;9.80;100.00
20394;BME280;10356;50.544;9.642;2023-02-18T14:50:13;98538.19;;;9.73;100.00
20394;BME280;10356;50.544;9.642;2023-02-18T14:52:42;98541.53;;;9.75;100.00
20394;BME280;10356;50.544;9.642;2023-02-18T14:55:16;98540.44;;;9.78;100.00
20394;BME280;10356;50.544;9.642;2023-02-18T14:57:49;98545.28;;;9.71;100.00
20394;BME280;10356;50.544;9.642;2023-02-18T15:00:18;98537.47;;;9.71;100.00
20394;BME280;10356;50.544;9.642;2023-02-18T15:02:47;98533.06;;;9.72;100.00
20394;BME280;10356;50.544;9.642;2023-02-18T15:05:16;98521.22;;;9.68;100.00
20394;BME280;10356;50.544;9.642;2023-02-18T15:07:54;98534.88;;;9.71;100.00
20394;BME280;10356;50.544;9.642;2023-02-18T15:10:24;98534.03;;;9.71;100.00
20394;BME280;10356;50.544;9.642;2023-02-18T15:12:52;98540.69;;;9.75;100.00
20394;BME280;10356;50.544;9.642;2023-02-18T15:15:19;98532.66;;;9.78;100.00
20394;BME280;10356;50.544;9.642;2023-02-18T15:17:47;98531.72;;;9.79;100.00
20394;BME280;10356;50.544;9.642;2023-02-18T15:20:14;98544.00;;;9.77;100.00
20394;BME280;10356;50.544;9.642;2023-02-18T15:22:41;98532.75;;;9.76;100.00
20394;BME280;10356;50.544;9.642;2023-02-18T15:25:10;98540.44;;;9.78;100.00
20394;BME280;10356;50.544;9.642;2023-02-18T15:27:39;98531.91;;;9.76;100.00
20394;BME280;10356;50.544;9.642;2023-02-18T15:30:18;98534.31;;;9.79;100.00
20394;BME280;10356;50.544;9.642;2023-02-18T15:32:49;98544.50;;;9.82;100.00
20394;BME280;10356;50.544;9.642;2023-02-18T15:35:18;98540.03;;;9.84;100.00